createdAt,value
2018-03-23T00:00:00.173Z,5.47
2018-03-23T00:01:00.178Z,5.47
2018-03-23T00:02:00.181Z,5.47
2018-03-23T00:03:00.179Z,5.48
2018-03-23T00:04:01.181Z,5.48
2018-03-23T00:05:00.181Z,5.48
2018-03-23T00:06:00.185Z,5.48
2018-03-23T00:07:00.193Z,5.48
2018-03-23T00:08:00.199Z,5.48
2018-03-23T00:09:00.197Z,5.48
2018-03-23T00:10:00.201Z,5.48
2018-03-23T00:11:00.199Z,5.50
2018-03-23T00:12:01.224Z,5.50
2018-03-23T00:13:00.218Z,5.51
2018-03-23T00:14:00.213Z,5.50
2018-03-23T00:15:00.207Z,5.50
2018-03-23T00:16:00.217Z,5.50
2018-03-23T00:17:00.209Z,5.51
2018-03-23T00:18:00.222Z,5.51
2018-03-23T00:19:00.237Z,5.51
2018-03-23T00:20:00.229Z,5.50
2018-03-23T00:21:00.233Z,5.48
2018-03-23T00:22:00.238Z,5.50
2018-03-23T00:23:00.252Z,5.50
2018-03-23T00:24:00.233Z,5.48
2018-03-23T00:25:00.238Z,5.48
2018-03-23T00:26:00.236Z,5.48
2018-03-23T00:27:00.241Z,5.47
2018-03-23T00:28:00.252Z,5.48
2018-03-23T00:29:01.255Z,5.47
2018-03-23T00:30:00.253Z,5.47
2018-03-23T00:31:00.266Z,5.47
2018-03-23T00:32:00.253Z,5.44
2018-03-23T00:33:00.260Z,5.44
2018-03-23T00:34:00.260Z,5.44
2018-03-23T00:35:00.272Z,5.44
2018-03-23T00:36:00.265Z,5.44
2018-03-23T00:37:00.284Z,5.44
2018-03-23T00:38:00.267Z,5.44
2018-03-23T00:39:00.278Z,5.43
2018-03-23T00:40:00.280Z,5.44
2018-03-23T00:41:00.293Z,5.44
2018-03-23T00:42:00.285Z,5.43
2018-03-23T00:43:00.299Z,5.43
2018-03-23T00:44:00.290Z,5.43
2018-03-23T00:45:00.302Z,5.41
2018-03-23T00:46:00.299Z,5.41
2018-03-23T00:47:00.308Z,5.43
2018-03-23T00:48:00.312Z,5.44
2018-03-23T00:49:00.310Z,5.43
2018-03-23T00:50:00.310Z,5.44
2018-03-23T00:51:00.323Z,5.44
2018-03-23T00:52:00.308Z,5.44
2018-03-23T00:53:02.330Z,5.44
2018-03-23T00:54:00.316Z,5.44
2018-03-23T00:55:01.332Z,5.47
2018-03-23T00:56:00.329Z,5.48
2018-03-23T00:57:00.327Z,5.48
2018-03-23T00:58:00.330Z,5.50
2018-03-23T00:59:00.335Z,5.50
2018-03-23T01:00:00.330Z,5.50
2018-03-23T01:01:00.337Z,5.50
2018-03-23T01:02:00.356Z,5.50
2018-03-23T01:03:00.350Z,5.51
2018-03-23T01:04:00.349Z,5.51
2018-03-23T01:05:00.355Z,5.51
2018-03-23T01:06:00.361Z,5.51
2018-03-23T01:07:00.377Z,5.51
2018-03-23T01:08:00.360Z,5.54
2018-03-23T01:09:00.378Z,5.51
2018-03-23T01:10:00.363Z,5.52
2018-03-23T01:11:00.381Z,5.52
2018-03-23T01:12:00.362Z,5.52
2018-03-23T01:13:00.376Z,5.52
2018-03-23T01:14:00.368Z,5.54
2018-03-23T01:15:00.378Z,5.52
2018-03-23T01:16:00.379Z,5.52
2018-03-23T01:17:00.389Z,5.54
2018-03-23T01:18:00.386Z,5.54
2018-03-23T01:19:00.385Z,5.52
2018-03-23T01:20:00.389Z,5.55
2018-03-23T01:21:00.392Z,5.54
2018-03-23T01:22:00.398Z,5.55
2018-03-23T01:23:00.405Z,5.54
2018-03-23T01:24:00.396Z,5.54
2018-03-23T01:25:00.404Z,5.52
2018-03-23T01:26:00.405Z,5.52
2018-03-23T01:27:00.408Z,5.51
2018-03-23T01:28:00.409Z,5.52
2018-03-23T01:29:00.418Z,5.52
2018-03-23T01:30:00.423Z,5.51
2018-03-23T01:31:00.425Z,5.51
2018-03-23T01:32:00.431Z,5.52
2018-03-23T01:33:00.432Z,5.51
2018-03-23T01:34:00.440Z,5.50
2018-03-23T01:35:00.435Z,5.50
2018-03-23T01:36:00.431Z,5.48
2018-03-23T01:37:00.457Z,5.47
2018-03-23T01:38:00.438Z,5.43
2018-03-23T01:39:00.463Z,5.41
2018-03-23T01:40:00.440Z,5.43
2018-03-23T01:41:01.508Z,5.40
2018-03-23T01:42:00.453Z,5.39
2018-03-23T01:43:00.456Z,5.39
2018-03-23T01:44:00.447Z,5.37
2018-03-23T01:45:00.464Z,5.36
2018-03-23T01:46:00.459Z,5.36
2018-03-23T01:47:01.470Z,5.34
2018-03-23T01:48:00.471Z,5.34
2018-03-23T01:49:01.473Z,5.34
2018-03-23T01:50:00.469Z,5.33
2018-03-23T01:51:00.486Z,5.33
2018-03-23T01:52:00.473Z,5.34
2018-03-23T01:53:00.481Z,5.33
2018-03-23T01:54:00.512Z,5.33
2018-03-23T01:55:01.503Z,5.32
2018-03-23T01:56:00.491Z,5.33
2018-03-23T01:57:01.514Z,5.32
2018-03-23T01:58:00.493Z,5.30
2018-03-23T01:59:00.498Z,5.30
2018-03-23T02:00:00.497Z,5.29
2018-03-23T02:01:00.512Z,5.29
2018-03-23T02:02:00.509Z,5.27
2018-03-23T02:03:00.523Z,5.25
2018-03-23T02:04:00.523Z,5.27
2018-03-23T02:05:01.513Z,5.25
2018-03-23T02:06:00.516Z,5.24
2018-03-23T02:07:00.528Z,5.24
2018-03-23T02:08:00.516Z,5.24
2018-03-23T02:09:00.527Z,5.25
2018-03-23T02:10:00.524Z,5.24
2018-03-23T02:11:00.543Z,5.22
2018-03-23T02:12:00.531Z,5.21
2018-03-23T02:13:00.538Z,5.21
2018-03-23T02:14:00.546Z,5.21
2018-03-23T02:15:00.538Z,5.19
2018-03-23T02:16:00.555Z,5.19
2018-03-23T02:17:00.549Z,5.19
2018-03-23T02:18:00.568Z,5.19
2018-03-23T02:19:00.551Z,5.18
2018-03-23T02:20:00.550Z,5.19
2018-03-23T02:21:00.562Z,5.16
2018-03-23T02:22:00.561Z,5.16
2018-03-23T02:23:01.577Z,5.18
2018-03-23T02:24:00.568Z,5.16
2018-03-23T02:25:00.570Z,5.15
2018-03-23T02:26:00.571Z,5.15
2018-03-23T02:27:00.575Z,5.15
2018-03-23T02:28:00.573Z,5.15
2018-03-23T02:29:00.582Z,5.15
2018-03-23T02:30:00.592Z,5.14
2018-03-23T02:31:00.595Z,5.14
2018-03-23T02:32:00.579Z,5.15
2018-03-23T02:33:00.588Z,5.14
2018-03-23T02:34:00.590Z,5.14
2018-03-23T02:35:00.598Z,5.12
2018-03-23T02:36:00.599Z,5.14
2018-03-23T02:37:00.600Z,5.14
2018-03-23T02:38:00.601Z,5.14
2018-03-23T02:39:00.605Z,5.14
2018-03-23T02:40:00.607Z,5.12
2018-03-23T02:41:00.613Z,5.11
2018-03-23T02:42:00.619Z,5.09
2018-03-23T02:43:01.622Z,5.09
2018-03-23T02:44:00.623Z,5.09
2018-03-23T02:45:00.629Z,5.06
2018-03-23T02:46:00.622Z,5.04
2018-03-23T02:47:00.630Z,5.04
2018-03-23T02:48:00.635Z,5.04
2018-03-23T02:49:00.635Z,5.04
2018-03-23T02:50:00.635Z,5.04
2018-03-23T02:51:00.640Z,5.03
2018-03-23T02:52:00.645Z,5.03
2018-03-23T02:53:00.641Z,5.04
2018-03-23T02:54:00.653Z,5.04
2018-03-23T02:55:00.680Z,5.03
2018-03-23T02:56:00.642Z,5.03
2018-03-23T02:57:00.667Z,5.01
2018-03-23T02:58:00.658Z,5.00
2018-03-23T02:59:00.666Z,5.00
2018-03-23T03:00:00.658Z,4.97
2018-03-23T03:01:00.664Z,4.97
2018-03-23T03:02:00.671Z,4.97
2018-03-23T03:03:00.673Z,5.00
2018-03-23T03:04:00.670Z,4.98
2018-03-23T03:05:00.679Z,4.98
2018-03-23T03:06:00.686Z,4.98
2018-03-23T03:07:00.683Z,5.01
2018-03-23T03:08:00.697Z,5.00
2018-03-23T03:09:00.694Z,5.00
2018-03-23T03:10:00.681Z,5.00
2018-03-23T03:11:00.714Z,5.00
2018-03-23T03:12:00.685Z,5.01
2018-03-23T03:13:00.702Z,5.01
2018-03-23T03:14:00.701Z,5.01
2018-03-23T03:15:00.705Z,5.01
2018-03-23T03:16:00.702Z,5.01
2018-03-23T03:17:00.707Z,5.03
2018-03-23T03:18:00.709Z,5.03
2018-03-23T03:19:00.715Z,5.04
2018-03-23T03:20:00.718Z,5.04
2018-03-23T03:21:00.720Z,5.04
2018-03-23T03:22:00.732Z,5.06
2018-03-23T03:23:00.736Z,5.06
2018-03-23T03:24:00.715Z,5.04
2018-03-23T03:25:00.746Z,5.06
2018-03-23T03:26:00.727Z,5.06
2018-03-23T03:27:00.734Z,5.06
2018-03-23T03:28:00.732Z,5.07
2018-03-23T03:29:00.742Z,5.06
2018-03-23T03:30:00.743Z,5.06
2018-03-23T03:31:00.748Z,5.06
2018-03-23T03:32:00.747Z,5.06
2018-03-23T03:33:00.757Z,5.06
2018-03-23T03:34:00.751Z,5.07
2018-03-23T03:35:01.755Z,5.07
2018-03-23T03:36:00.750Z,5.07
2018-03-23T03:37:00.805Z,5.07
2018-03-23T03:38:00.754Z,5.09
2018-03-23T03:39:00.791Z,5.07
2018-03-23T03:40:00.768Z,5.09
2018-03-23T03:41:00.767Z,5.09
2018-03-23T03:42:00.768Z,5.07
2018-03-23T03:43:00.776Z,5.09
2018-03-23T03:44:00.778Z,5.09
2018-03-23T03:45:00.782Z,5.09
2018-03-23T03:46:00.798Z,5.09
2018-03-23T03:47:00.794Z,5.09
2018-03-23T03:48:00.795Z,5.11
2018-03-23T03:49:00.786Z,5.09
2018-03-23T03:50:00.790Z,5.11
2018-03-23T03:51:00.797Z,5.11
2018-03-23T03:52:00.798Z,5.11
2018-03-23T03:53:00.823Z,5.11
2018-03-23T03:54:00.801Z,5.09
2018-03-23T03:55:00.810Z,5.09
2018-03-23T03:56:00.805Z,5.11
2018-03-23T03:57:00.810Z,5.09
2018-03-23T03:58:00.821Z,5.09
2018-03-23T03:59:00.823Z,5.09
2018-03-23T04:00:00.828Z,5.11
2018-03-23T04:01:00.829Z,5.09
2018-03-23T04:02:00.820Z,5.11
2018-03-23T04:03:00.840Z,5.11
2018-03-23T04:04:00.822Z,5.09
2018-03-23T04:05:00.827Z,5.11
2018-03-23T04:06:00.846Z,5.11
2018-03-23T04:07:00.836Z,5.11
2018-03-23T04:08:00.843Z,5.11
2018-03-23T04:09:00.847Z,5.11
2018-03-23T04:10:00.841Z,5.11
2018-03-23T04:11:00.852Z,5.11
2018-03-23T04:12:00.866Z,5.11
2018-03-23T04:13:00.857Z,5.09
2018-03-23T04:14:00.857Z,5.11
2018-03-23T04:15:00.870Z,5.11
2018-03-23T04:16:00.860Z,5.11
2018-03-23T04:17:00.877Z,5.09
2018-03-23T04:18:00.863Z,5.09
2018-03-23T04:19:00.873Z,5.11
2018-03-23T04:20:00.871Z,5.12
2018-03-23T04:21:00.878Z,5.11
2018-03-23T04:22:00.884Z,5.12
2018-03-23T04:23:00.878Z,5.12
2018-03-23T04:24:00.884Z,5.11
2018-03-23T04:25:00.888Z,5.11
2018-03-23T04:26:00.894Z,5.12
2018-03-23T04:27:00.889Z,5.11
2018-03-23T04:28:00.895Z,5.12
2018-03-23T04:29:00.899Z,5.11
2018-03-23T04:30:00.904Z,5.14
2018-03-23T04:31:00.896Z,5.14
2018-03-23T04:32:00.909Z,5.12
2018-03-23T04:33:00.903Z,5.11
2018-03-23T04:34:00.914Z,5.11
2018-03-23T04:35:00.915Z,5.12
2018-03-23T04:36:00.917Z,5.12
2018-03-23T04:37:00.919Z,5.12
2018-03-23T04:38:00.920Z,5.12
2018-03-23T04:39:00.928Z,5.12
2018-03-23T04:40:01.930Z,5.12
2018-03-23T04:41:00.935Z,5.12
2018-03-23T04:42:00.948Z,5.12
2018-03-23T04:43:00.962Z,5.12
2018-03-23T04:44:00.936Z,5.12
2018-03-23T04:45:00.938Z,5.11
2018-03-23T04:46:00.946Z,5.12
2018-03-23T04:47:00.943Z,5.11
2018-03-23T04:48:00.951Z,5.12
2018-03-23T04:49:00.942Z,5.12
2018-03-23T04:50:00.953Z,5.12
2018-03-23T04:51:00.952Z,5.12
2018-03-23T04:52:00.960Z,5.12
2018-03-23T04:53:00.954Z,5.14
2018-03-23T04:54:02.971Z,5.14
2018-03-23T04:55:00.964Z,5.14
2018-03-23T04:56:00.974Z,5.14
2018-03-23T04:57:00.962Z,5.12
2018-03-23T04:58:00.985Z,5.14
2018-03-23T04:59:00.968Z,5.14
2018-03-23T05:00:00.972Z,5.15
2018-03-23T05:01:00.980Z,5.14
2018-03-23T05:02:00.987Z,5.14
2018-03-23T05:03:00.992Z,5.15
2018-03-23T05:04:00.989Z,5.15
2018-03-23T05:05:00.991Z,5.15
2018-03-23T05:06:01.997Z,5.15
2018-03-23T05:07:01.001Z,5.14
2018-03-23T05:08:01.013Z,5.15
2018-03-23T05:09:00.999Z,5.16
2018-03-23T05:10:01.006Z,5.15
2018-03-23T05:11:01.013Z,5.16
2018-03-23T05:12:01.011Z,5.16
2018-03-23T05:13:01.010Z,5.16
2018-03-23T05:14:01.018Z,5.18
2018-03-23T05:15:01.022Z,5.16
2018-03-23T05:16:01.022Z,5.18
2018-03-23T05:17:01.022Z,5.16
2018-03-23T05:18:01.029Z,5.18
2018-03-23T05:19:01.028Z,5.16
2018-03-23T05:20:01.027Z,5.18
2018-03-23T05:21:01.029Z,5.18
2018-03-23T05:22:01.035Z,5.16
2018-03-23T05:23:01.040Z,5.16
2018-03-23T05:24:01.043Z,5.16
2018-03-23T05:25:01.055Z,5.18
2018-03-23T05:26:01.052Z,5.18
2018-03-23T05:27:01.047Z,5.18
2018-03-23T05:28:01.049Z,5.18
2018-03-23T05:29:01.071Z,5.19
2018-03-23T05:30:01.061Z,5.18
2018-03-23T05:31:01.067Z,5.19
2018-03-23T05:32:01.064Z,5.18
2018-03-23T05:33:01.058Z,5.18
2018-03-23T05:34:01.075Z,5.18
2018-03-23T05:35:01.072Z,5.19
2018-03-23T05:36:01.079Z,5.19
2018-03-23T05:37:01.071Z,5.18
2018-03-23T05:38:01.071Z,5.19
2018-03-23T05:39:01.075Z,5.19
2018-03-23T05:40:01.082Z,5.21
2018-03-23T05:41:01.084Z,5.18
2018-03-23T05:42:02.093Z,5.18
2018-03-23T05:43:01.091Z,5.19
2018-03-23T05:44:01.098Z,5.19
2018-03-23T05:45:01.090Z,5.21
2018-03-23T05:46:01.099Z,5.19
2018-03-23T05:47:01.098Z,5.19
2018-03-23T05:48:01.106Z,5.21
2018-03-23T05:49:01.146Z,5.21
2018-03-23T05:50:01.142Z,5.21
2018-03-23T05:51:01.112Z,5.21
2018-03-23T05:52:01.114Z,5.21
2018-03-23T05:53:01.113Z,5.22
2018-03-23T05:54:01.164Z,5.21
2018-03-23T05:55:01.119Z,5.21
2018-03-23T05:56:01.122Z,5.21
2018-03-23T05:57:01.119Z,5.21
2018-03-23T05:58:01.143Z,5.22
2018-03-23T05:59:01.139Z,5.22
2018-03-23T06:00:01.138Z,5.21
2018-03-23T06:01:01.136Z,5.22
2018-03-23T06:02:01.143Z,5.22
2018-03-23T06:03:01.142Z,5.22
2018-03-23T06:04:01.144Z,5.24
2018-03-23T06:05:01.143Z,5.24
2018-03-23T06:06:01.154Z,5.22
2018-03-23T06:07:01.155Z,5.22
2018-03-23T06:08:01.155Z,5.24
2018-03-23T06:09:01.160Z,5.22
2018-03-23T06:10:01.158Z,5.24
2018-03-23T06:11:01.165Z,5.22
2018-03-23T06:12:01.167Z,5.24
2018-03-23T06:13:01.172Z,5.24
2018-03-23T06:14:01.174Z,5.24
2018-03-23T06:15:01.174Z,5.24
2018-03-23T06:16:01.174Z,5.25
2018-03-23T06:17:01.172Z,5.25
2018-03-23T06:18:01.186Z,5.25
2018-03-23T06:19:01.177Z,5.27
2018-03-23T06:20:01.183Z,5.27
2018-03-23T06:21:01.181Z,5.27
2018-03-23T06:22:01.194Z,5.29
2018-03-23T06:23:01.189Z,5.29
2018-03-23T06:24:01.196Z,5.29
2018-03-23T06:25:01.193Z,5.29
2018-03-23T06:26:01.197Z,5.30
2018-03-23T06:27:01.205Z,5.32
2018-03-23T06:28:01.223Z,5.32
2018-03-23T06:29:01.225Z,5.30
2018-03-23T06:30:01.214Z,5.32
2018-03-23T06:31:01.211Z,5.32
2018-03-23T06:32:01.231Z,5.32
2018-03-23T06:33:01.216Z,5.32
2018-03-23T06:34:02.226Z,5.33
2018-03-23T06:35:01.221Z,5.33
2018-03-23T06:36:01.228Z,5.36
2018-03-23T06:37:01.225Z,5.34
2018-03-23T06:38:02.299Z,5.36
2018-03-23T06:39:01.236Z,5.36
2018-03-23T06:40:01.287Z,5.37
2018-03-23T06:41:01.238Z,5.37
2018-03-23T06:42:01.299Z,5.37
2018-03-23T06:43:01.239Z,5.39
2018-03-23T06:44:01.317Z,5.40
2018-03-23T06:45:01.247Z,5.40
2018-03-23T06:46:01.281Z,5.40
2018-03-23T06:47:01.281Z,5.43
2018-03-23T06:48:02.324Z,5.44
2018-03-23T06:49:01.256Z,5.43
2018-03-23T06:50:01.265Z,5.43
2018-03-23T06:51:01.259Z,5.44
2018-03-23T06:52:01.282Z,5.47
2018-03-23T06:53:01.267Z,5.48
2018-03-23T06:54:01.271Z,5.47
2018-03-23T06:55:01.265Z,5.44
2018-03-23T06:56:01.273Z,5.48
2018-03-23T06:57:01.273Z,5.47
2018-03-23T06:58:01.284Z,5.48
2018-03-23T06:59:01.285Z,5.50
2018-03-23T07:00:01.294Z,5.48
2018-03-23T07:01:01.283Z,5.50
2018-03-23T07:02:01.316Z,5.51
2018-03-23T07:03:01.289Z,5.51
2018-03-23T07:04:01.298Z,5.52
2018-03-23T07:05:01.302Z,5.52
2018-03-23T07:06:01.314Z,5.52
2018-03-23T07:07:01.301Z,5.54
2018-03-23T07:08:01.353Z,5.52
2018-03-23T07:09:01.306Z,5.54
2018-03-23T07:10:02.318Z,5.54
2018-03-23T07:11:01.364Z,5.54
2018-03-23T07:12:01.315Z,5.55
2018-03-23T07:13:01.313Z,5.57
2018-03-23T07:14:01.384Z,5.55
2018-03-23T07:15:01.341Z,5.55
2018-03-23T07:16:01.379Z,5.57
2018-03-23T07:17:01.324Z,5.57
2018-03-23T07:18:01.326Z,5.57
2018-03-23T07:19:01.337Z,5.58
2018-03-23T07:20:01.333Z,5.59
2018-03-23T07:21:01.412Z,5.61
2018-03-23T07:22:01.346Z,5.61
2018-03-23T07:23:01.424Z,5.62
2018-03-23T07:24:01.360Z,5.65
2018-03-23T07:25:01.442Z,5.65
2018-03-23T07:26:01.354Z,5.62
2018-03-23T07:27:01.454Z,5.67
2018-03-23T07:28:01.357Z,5.67
2018-03-23T07:29:01.465Z,5.69
2018-03-23T07:30:01.363Z,5.70
2018-03-23T07:31:01.385Z,5.72
2018-03-23T07:32:01.367Z,5.73
2018-03-23T07:33:01.394Z,5.73
2018-03-23T07:34:01.368Z,5.73
2018-03-23T07:35:01.406Z,5.75
2018-03-23T07:36:01.376Z,5.77
2018-03-23T07:37:01.419Z,5.76
2018-03-23T07:38:01.382Z,5.79
2018-03-23T07:39:01.446Z,5.79
2018-03-23T07:40:01.388Z,5.80
2018-03-23T07:41:01.459Z,5.79
2018-03-23T07:42:01.404Z,5.80
2018-03-23T07:43:01.483Z,5.80
2018-03-23T07:44:01.395Z,5.80
2018-03-23T07:45:01.517Z,5.82
2018-03-23T07:46:01.407Z,5.82
2018-03-23T07:47:01.457Z,5.82
2018-03-23T07:48:01.404Z,5.80
2018-03-23T07:49:01.471Z,5.82
2018-03-23T07:50:01.461Z,5.82
2018-03-23T07:51:01.485Z,5.80
2018-03-23T07:52:01.417Z,5.82
2018-03-23T07:53:01.499Z,5.82
2018-03-23T07:54:01.426Z,5.84
2018-03-23T07:55:01.509Z,5.82
2018-03-23T07:56:01.432Z,5.84
2018-03-23T07:57:01.528Z,5.85
2018-03-23T07:58:01.430Z,5.87
2018-03-23T07:59:01.596Z,5.90
2018-03-23T08:00:01.440Z,5.93
2018-03-23T08:01:01.441Z,5.93
2018-03-23T08:02:01.444Z,5.94
2018-03-23T08:03:01.453Z,5.93
2018-03-23T08:04:01.447Z,5.94
2018-03-23T08:05:01.471Z,5.93
2018-03-23T08:06:01.453Z,5.95
2018-03-23T08:07:01.459Z,5.95
2018-03-23T08:08:01.464Z,5.98
2018-03-23T08:09:01.467Z,6.03
2018-03-23T08:10:01.462Z,6.05
2018-03-23T08:11:01.477Z,6.12
2018-03-23T08:12:01.472Z,6.16
2018-03-23T08:13:01.473Z,6.24
2018-03-23T08:14:01.472Z,6.28
2018-03-23T08:15:01.483Z,6.35
2018-03-23T08:16:01.489Z,6.38
2018-03-23T08:17:02.492Z,6.43
2018-03-23T08:18:01.480Z,6.47
2018-03-23T08:19:01.494Z,6.50
2018-03-23T08:20:01.492Z,6.55
2018-03-23T08:21:01.501Z,6.60
2018-03-23T08:22:01.497Z,6.67
2018-03-23T08:23:01.509Z,6.73
2018-03-23T08:24:01.492Z,6.79
2018-03-23T08:25:01.508Z,6.83
2018-03-23T08:26:01.505Z,6.91
2018-03-23T08:27:01.508Z,6.93
2018-03-23T08:28:01.516Z,7.00
2018-03-23T08:29:01.514Z,7.03
2018-03-23T08:30:01.575Z,7.03
2018-03-23T08:31:01.521Z,7.06
2018-03-23T08:32:01.594Z,7.06
2018-03-23T08:33:01.526Z,7.04
2018-03-23T08:34:02.639Z,7.06
2018-03-23T08:35:01.534Z,7.04
2018-03-23T08:36:01.933Z,7.06
2018-03-23T08:37:01.527Z,7.06
2018-03-23T08:38:01.635Z,7.07
2018-03-23T08:39:01.543Z,7.07
2018-03-23T08:40:02.567Z,7.07
2018-03-23T08:41:01.558Z,7.07
2018-03-23T08:42:01.661Z,7.08
2018-03-23T08:43:01.542Z,7.08
2018-03-23T08:44:01.620Z,7.08
2018-03-23T08:45:01.577Z,7.07
2018-03-23T08:46:01.586Z,7.10
2018-03-23T08:47:01.562Z,7.10
2018-03-23T08:48:01.632Z,7.11
2018-03-23T08:49:01.560Z,7.11
2018-03-23T08:50:01.612Z,7.11
2018-03-23T08:51:01.564Z,7.11
2018-03-23T08:52:01.623Z,7.11
2018-03-23T08:53:01.576Z,7.11
2018-03-23T08:54:01.644Z,7.11
2018-03-23T08:55:01.574Z,7.11
2018-03-23T08:56:01.650Z,7.13
2018-03-23T08:57:01.588Z,7.11
2018-03-23T08:58:01.666Z,7.13
2018-03-23T08:59:01.604Z,7.16
2018-03-23T09:00:01.676Z,7.16
2018-03-23T09:01:01.593Z,7.16
2018-03-23T09:02:01.728Z,7.16
2018-03-23T09:03:01.595Z,7.16
2018-03-23T09:04:01.702Z,7.19
2018-03-23T09:05:01.606Z,7.21
2018-03-23T09:06:01.714Z,7.22
2018-03-23T09:07:01.617Z,7.26
2018-03-23T09:08:01.646Z,7.31
2018-03-23T09:09:01.611Z,7.36
2018-03-23T09:10:01.640Z,7.42
2018-03-23T09:11:01.629Z,7.46
2018-03-23T09:12:01.656Z,7.50
2018-03-23T09:13:01.627Z,7.54
2018-03-23T09:14:01.665Z,7.55
2018-03-23T09:15:01.632Z,7.55
2018-03-23T09:16:01.679Z,7.58
2018-03-23T09:17:01.637Z,7.62
2018-03-23T09:18:01.693Z,7.66
2018-03-23T09:19:01.644Z,7.69
2018-03-23T09:20:01.719Z,7.69
2018-03-23T09:21:01.642Z,7.69
2018-03-23T09:22:01.726Z,7.68
2018-03-23T09:23:01.651Z,7.64
2018-03-23T09:24:01.735Z,7.61
2018-03-23T09:25:01.663Z,7.54
2018-03-23T09:26:01.746Z,7.49
2018-03-23T09:27:01.664Z,7.44
2018-03-23T09:28:02.684Z,7.40
2018-03-23T09:29:01.664Z,7.37
2018-03-23T09:30:01.789Z,7.34
2018-03-23T09:31:01.674Z,7.31
2018-03-23T09:32:01.690Z,7.29
2018-03-23T09:33:01.687Z,7.28
2018-03-23T09:34:01.711Z,7.28
2018-03-23T09:35:01.740Z,7.33
2018-03-23T09:36:01.718Z,7.39
2018-03-23T09:37:01.700Z,7.42
2018-03-23T09:38:01.730Z,7.50
2018-03-23T09:39:01.703Z,7.57
2018-03-23T09:40:01.744Z,7.62
2018-03-23T09:41:01.702Z,7.69
2018-03-23T09:42:01.756Z,7.76
2018-03-23T09:43:01.703Z,7.84
2018-03-23T09:44:01.770Z,7.91
2018-03-23T09:45:01.714Z,7.96
2018-03-23T09:46:01.786Z,8.01
2018-03-23T09:47:01.715Z,8.05
2018-03-23T09:48:01.827Z,8.09
2018-03-23T09:49:01.723Z,8.13
2018-03-23T09:50:01.822Z,8.16
2018-03-23T09:51:01.739Z,8.16
2018-03-23T09:52:01.867Z,8.17
2018-03-23T09:53:01.757Z,8.21
2018-03-23T09:54:01.846Z,8.23
2018-03-23T09:55:01.742Z,8.24
2018-03-23T09:56:01.857Z,8.24
2018-03-23T09:57:01.765Z,8.19
2018-03-23T09:58:01.768Z,8.16
2018-03-23T09:59:01.746Z,8.13
2018-03-23T10:00:01.780Z,8.10
2018-03-23T10:01:01.770Z,8.09
2018-03-23T10:02:01.794Z,8.06
2018-03-23T10:03:01.799Z,8.09
2018-03-23T10:04:01.920Z,8.13
2018-03-23T10:05:01.788Z,8.17
2018-03-23T10:06:02.852Z,8.26
2018-03-23T10:07:01.795Z,8.34
2018-03-23T10:08:02.856Z,8.41
2018-03-23T10:09:01.779Z,8.47
2018-03-23T10:10:01.849Z,8.52
2018-03-23T10:11:01.787Z,8.57
2018-03-23T10:12:01.860Z,8.67
2018-03-23T10:13:01.786Z,8.72
2018-03-23T10:14:01.892Z,8.75
2018-03-23T10:15:01.814Z,8.80
2018-03-23T10:16:01.885Z,8.88
2018-03-23T10:17:01.797Z,8.92
2018-03-23T10:18:01.803Z,8.98
2018-03-23T10:19:01.802Z,9.01
2018-03-23T10:20:01.813Z,9.01
2018-03-23T10:21:01.869Z,9.03
2018-03-23T10:22:02.816Z,9.03
2018-03-23T10:23:01.818Z,9.06
2018-03-23T10:24:01.820Z,9.08
2018-03-23T10:25:01.828Z,9.12
2018-03-23T10:26:01.832Z,9.14
2018-03-23T10:27:01.826Z,9.15
2018-03-23T10:28:01.856Z,9.12
2018-03-23T10:29:01.883Z,9.11
2018-03-23T10:30:01.841Z,9.08
2018-03-23T10:31:01.842Z,9.06
2018-03-23T10:32:01.842Z,9.08
2018-03-23T10:33:01.843Z,9.09
2018-03-23T10:34:01.861Z,9.08
2018-03-23T10:35:02.155Z,9.09
2018-03-23T10:36:01.859Z,9.11
2018-03-23T10:37:01.860Z,9.09
2018-03-23T10:38:01.858Z,9.09
2018-03-23T10:39:01.941Z,9.09
2018-03-23T10:40:01.879Z,9.14
2018-03-23T10:41:01.877Z,9.18
2018-03-23T10:42:01.870Z,9.23
2018-03-23T10:43:01.893Z,9.29
2018-03-23T10:44:01.879Z,9.36
2018-03-23T10:45:01.881Z,9.40
2018-03-23T10:46:01.887Z,9.41
2018-03-23T10:47:01.886Z,9.47
2018-03-23T10:48:01.889Z,9.54
2018-03-23T10:49:01.891Z,9.57
2018-03-23T10:50:02.221Z,9.59
2018-03-23T10:51:01.901Z,9.65
2018-03-23T10:52:01.930Z,9.67
2018-03-23T10:53:01.913Z,9.72
2018-03-23T10:54:01.946Z,9.77
2018-03-23T10:55:01.905Z,9.80
2018-03-23T10:56:01.926Z,9.83
2018-03-23T10:57:01.920Z,9.85
2018-03-23T10:58:01.925Z,9.87
2018-03-23T10:59:01.929Z,9.91
2018-03-23T11:00:01.962Z,9.91
2018-03-23T11:01:01.928Z,9.93
2018-03-23T11:02:01.958Z,9.93
2018-03-23T11:03:01.944Z,9.93
2018-03-23T11:04:02.952Z,9.94
2018-03-23T11:05:01.949Z,9.94
2018-03-23T11:06:01.948Z,9.88
2018-03-23T11:07:01.958Z,9.87
2018-03-23T11:08:01.967Z,9.83
2018-03-23T11:09:01.953Z,9.80
2018-03-23T11:10:01.990Z,9.77
2018-03-23T11:11:01.962Z,9.73
2018-03-23T11:12:01.965Z,9.70
2018-03-23T11:13:01.972Z,9.67
2018-03-23T11:14:01.976Z,9.59
2018-03-23T11:15:01.972Z,9.51
2018-03-23T11:16:01.975Z,9.45
2018-03-23T11:17:01.990Z,9.41
2018-03-23T11:18:01.984Z,9.33
2018-03-23T11:19:01.983Z,9.27
2018-03-23T11:20:04.014Z,9.19
2018-03-23T11:21:01.987Z,9.11
2018-03-23T11:22:02.004Z,9.06
2018-03-23T11:23:02.019Z,8.99
2018-03-23T11:24:02.003Z,8.96
2018-03-23T11:25:02.057Z,8.93
2018-03-23T11:26:02.045Z,8.88
2018-03-23T11:27:02.062Z,8.83
2018-03-23T11:28:02.050Z,8.78
2018-03-23T11:29:02.077Z,8.75
2018-03-23T11:30:02.014Z,8.74
2018-03-23T11:31:02.034Z,8.72
2018-03-23T11:32:02.019Z,8.72
2018-03-23T11:33:02.100Z,8.72
2018-03-23T11:34:02.027Z,8.74
2018-03-23T11:35:02.115Z,8.78
2018-03-23T11:36:02.034Z,8.80
2018-03-23T11:37:02.164Z,8.81
2018-03-23T11:38:02.087Z,8.85
2018-03-23T11:39:02.155Z,8.88
2018-03-23T11:40:02.052Z,8.90
2018-03-23T11:41:02.159Z,8.95
2018-03-23T11:42:02.052Z,8.96
2018-03-23T11:43:02.173Z,8.96
2018-03-23T11:44:02.063Z,8.99
2018-03-23T11:45:02.083Z,9.03
2018-03-23T11:46:02.097Z,9.04
2018-03-23T11:47:02.137Z,9.08
2018-03-23T11:48:02.106Z,9.11
2018-03-23T11:49:02.117Z,9.12
2018-03-23T11:50:02.083Z,9.14
2018-03-23T11:51:02.129Z,9.14
2018-03-23T11:52:02.096Z,9.16
2018-03-23T11:53:02.139Z,9.16
2018-03-23T11:54:02.110Z,9.16
2018-03-23T11:55:02.157Z,9.16
2018-03-23T11:56:02.107Z,9.18
2018-03-23T11:57:02.171Z,9.19
2018-03-23T11:58:02.106Z,9.18
2018-03-23T11:59:02.298Z,9.19
2018-03-23T12:00:02.122Z,9.19
2018-03-23T12:01:02.199Z,9.19
2018-03-23T12:02:02.161Z,9.19
2018-03-23T12:03:02.216Z,9.19
2018-03-23T12:04:02.134Z,9.19
2018-03-23T12:05:04.177Z,9.18
2018-03-23T12:06:02.168Z,9.18
2018-03-23T12:07:02.244Z,9.15
2018-03-23T12:08:02.146Z,9.14
2018-03-23T12:09:02.253Z,9.12
2018-03-23T12:10:02.155Z,9.11
2018-03-23T12:11:02.268Z,9.09
2018-03-23T12:12:02.157Z,9.11
2018-03-23T12:13:02.177Z,9.11
2018-03-23T12:14:02.165Z,9.12
2018-03-23T12:15:02.194Z,9.14
2018-03-23T12:16:02.174Z,9.15
2018-03-23T12:17:02.202Z,9.15
2018-03-23T12:18:02.176Z,9.12
2018-03-23T12:19:02.219Z,9.08
2018-03-23T12:20:02.195Z,9.04
2018-03-23T12:21:02.224Z,8.99
2018-03-23T12:22:02.190Z,8.95
2018-03-23T12:23:02.245Z,8.89
2018-03-23T12:24:02.212Z,8.85
2018-03-23T12:25:02.208Z,8.81
2018-03-23T12:26:02.209Z,8.80
2018-03-23T12:27:02.273Z,8.80
2018-03-23T12:28:02.211Z,8.81
2018-03-23T12:29:02.287Z,8.83
2018-03-23T12:30:02.223Z,8.85
2018-03-23T12:31:02.301Z,8.85
2018-03-23T12:32:02.239Z,8.81
2018-03-23T12:33:02.237Z,8.81
2018-03-23T12:34:02.237Z,8.77
2018-03-23T12:35:02.243Z,8.75
2018-03-23T12:36:02.254Z,8.75
2018-03-23T12:37:02.338Z,8.71
2018-03-23T12:38:02.306Z,8.71
2018-03-23T12:39:02.350Z,8.70
2018-03-23T12:40:02.256Z,8.70
2018-03-23T12:41:02.261Z,8.70
2018-03-23T12:42:02.266Z,8.71
2018-03-23T12:43:02.380Z,8.72
2018-03-23T12:44:02.282Z,8.75
2018-03-23T12:45:02.288Z,8.78
2018-03-23T12:46:02.294Z,8.81
2018-03-23T12:47:02.277Z,8.83
2018-03-23T12:48:02.285Z,8.85
2018-03-23T12:49:02.287Z,8.85
2018-03-23T12:50:02.392Z,8.85
2018-03-23T12:51:02.363Z,8.83
2018-03-23T12:52:02.338Z,8.80
2018-03-23T12:53:02.307Z,8.78
2018-03-23T12:54:02.322Z,8.78
2018-03-23T12:55:02.308Z,8.81
2018-03-23T12:56:02.371Z,8.85
2018-03-23T12:57:02.325Z,8.86
2018-03-23T12:58:02.320Z,8.89
2018-03-23T12:59:02.392Z,8.92
2018-03-23T13:00:02.331Z,8.95
2018-03-23T13:01:02.363Z,8.95
2018-03-23T13:02:02.351Z,8.96
2018-03-23T13:03:02.341Z,8.95
2018-03-23T13:04:02.345Z,8.95
2018-03-23T13:05:02.353Z,8.95
2018-03-23T13:06:02.394Z,8.93
2018-03-23T13:07:02.356Z,8.96
2018-03-23T13:08:02.447Z,8.95
2018-03-23T13:09:02.368Z,8.93
2018-03-23T13:10:02.370Z,8.92
2018-03-23T13:11:02.382Z,8.89
2018-03-23T13:12:02.380Z,8.88
2018-03-23T13:13:02.396Z,8.85
2018-03-23T13:14:03.408Z,8.83
2018-03-23T13:15:02.394Z,8.83
2018-03-23T13:16:02.502Z,8.85
2018-03-23T13:17:02.390Z,8.83
2018-03-23T13:18:02.393Z,8.83